createdAt,value
2023-12-04T00:00:51.907Z,99.73
2023-12-04T00:01:52.037Z,99.63
2023-12-04T00:02:51.798Z,99.52
2023-12-04T00:03:51.873Z,99.67
2023-12-04T00:04:51.939Z,99.88
2023-12-04T00:05:51.763Z,99.99
2023-12-04T00:06:51.799Z,99.99
2023-12-04T00:07:51.793Z,99.99
2023-12-04T00:08:51.759Z,99.99
2023-12-04T00:09:51.750Z,99.99
2023-12-04T00:10:51.675Z,99.99
2023-12-04T00:11:51.711Z,99.99
2023-12-04T00:12:51.679Z,99.99
2023-12-04T00:13:51.709Z,99.99
2023-12-04T00:14:51.705Z,99.99
2023-12-04T00:15:51.871Z,99.99
2023-12-04T00:16:51.612Z,99.99
2023-12-04T00:17:51.714Z,99.99
2023-12-04T00:18:51.905Z,99.99
2023-12-04T00:19:51.613Z,99.99
2023-12-04T00:20:51.798Z,99.99
2023-12-04T00:21:51.562Z,99.88
2023-12-04T00:22:51.560Z,99.99
2023-12-04T00:23:51.623Z,99.99
2023-12-04T00:24:51.666Z,99.99
2023-12-04T00:25:51.610Z,99.99
2023-12-04T00:26:51.590Z,99.99
2023-12-04T00:27:51.693Z,99.99
2023-12-04T00:28:51.491Z,99.99
2023-12-04T00:29:51.521Z,99.99
2023-12-04T00:30:51.601Z,99.99
2023-12-04T00:31:51.464Z,99.99
2023-12-04T00:32:51.548Z,99.99
2023-12-04T00:33:51.502Z,99.99
2023-12-04T00:34:51.460Z,99.99
2023-12-04T00:35:51.476Z,99.99
2023-12-04T00:36:51.492Z,99.99
2023-12-04T00:37:51.499Z,99.99
2023-12-04T00:38:51.434Z,99.99
2023-12-04T00:39:51.455Z,99.99
2023-12-04T00:40:51.449Z,99.99
2023-12-04T00:41:51.387Z,99.99
2023-12-04T00:42:51.500Z,99.99
2023-12-04T00:43:51.434Z,99.99
2023-12-04T00:44:51.340Z,99.99
2023-12-04T00:45:51.395Z,99.99
2023-12-04T00:46:51.365Z,99.99
2023-12-04T00:47:51.363Z,99.99
2023-12-04T00:48:51.438Z,99.99
2023-12-04T00:49:51.307Z,99.99
2023-12-04T00:50:51.349Z,99.99
2023-12-04T00:51:51.298Z,99.99
2023-12-04T00:52:51.309Z,99.99
2023-12-04T00:53:51.271Z,99.99
2023-12-04T00:54:51.298Z,99.99
2023-12-04T00:55:51.404Z,99.99
2023-12-04T00:56:51.295Z,99.99
2023-12-04T00:57:51.404Z,99.99
2023-12-04T00:58:51.311Z,99.99
2023-12-04T00:59:51.327Z,99.99
2023-12-04T01:00:51.277Z,99.99
2023-12-04T01:01:51.193Z,99.99
2023-12-04T01:02:51.313Z,99.99
2023-12-04T01:03:51.185Z,99.99
2023-12-04T01:04:51.168Z,99.99
2023-12-04T01:05:51.174Z,99.99
2023-12-04T01:06:51.232Z,99.99
2023-12-04T01:07:51.240Z,99.99
2023-12-04T01:08:51.181Z,99.99
2023-12-04T01:09:51.158Z,99.99
2023-12-04T01:10:51.084Z,99.99
2023-12-04T01:11:51.117Z,99.99
2023-12-04T01:12:51.261Z,99.99
2023-12-04T01:13:51.089Z,99.99
2023-12-04T01:14:51.048Z,99.99
2023-12-04T01:15:51.098Z,99.99
2023-12-04T01:16:51.128Z,99.99
2023-12-04T01:17:51.228Z,99.99
2023-12-04T01:18:51.142Z,99.99
2023-12-04T01:19:51.186Z,99.99
2023-12-04T01:20:51.903Z,99.99
2023-12-04T01:21:51.072Z,99.99
2023-12-04T01:22:51.861Z,99.99
2023-12-04T01:23:50.989Z,99.99
2023-12-04T01:24:51.066Z,99.99
2023-12-04T01:25:51.150Z,99.99
2023-12-04T01:26:50.924Z,99.99
2023-12-04T01:27:51.036Z,99.99
2023-12-04T01:28:50.935Z,99.99
2023-12-04T01:29:50.942Z,99.99
2023-12-04T01:30:51.259Z,99.99
2023-12-04T01:31:50.917Z,99.99
2023-12-04T01:32:51.197Z,99.99
2023-12-04T01:33:51.080Z,99.99
2023-12-04T01:34:50.871Z,99.99
2023-12-04T01:35:50.854Z,99.99
2023-12-04T01:36:50.879Z,99.99
2023-12-04T01:37:51.258Z,99.99
2023-12-04T01:38:50.902Z,99.99
2023-12-04T01:39:50.839Z,99.99
2023-12-04T01:40:50.806Z,99.99
2023-12-04T01:41:50.869Z,99.99
2023-12-04T01:42:50.819Z,99.99
2023-12-04T01:43:50.812Z,99.99
2023-12-04T01:44:50.853Z,99.99
2023-12-04T01:45:50.825Z,99.99
2023-12-04T01:46:50.751Z,99.99
2023-12-04T01:47:50.784Z,99.99
2023-12-04T01:48:50.839Z,99.99
2023-12-04T01:49:50.764Z,99.99
2023-12-04T01:50:50.831Z,99.99
2023-12-04T01:51:50.777Z,99.99
2023-12-04T01:52:50.681Z,99.99
2023-12-04T01:53:50.657Z,99.99
2023-12-04T01:54:50.741Z,99.99
2023-12-04T01:55:50.777Z,99.99
2023-12-04T01:56:50.860Z,99.99
2023-12-04T01:57:50.777Z,99.99
2023-12-04T01:58:50.697Z,99.99
2023-12-04T01:59:50.668Z,99.99
2023-12-04T02:00:50.625Z,99.99
2023-12-04T02:01:50.674Z,99.99
2023-12-04T02:02:50.708Z,99.99
2023-12-04T02:03:50.644Z,99.99
2023-12-04T02:04:50.742Z,99.99
2023-12-04T02:05:50.710Z,99.99
2023-12-04T02:06:50.568Z,99.99
2023-12-04T02:07:50.554Z,99.99
2023-12-04T02:08:50.539Z,99.99
2023-12-04T02:09:50.520Z,99.99
2023-12-04T02:10:50.591Z,99.99
2023-12-04T02:11:50.502Z,99.99
2023-12-04T02:12:50.609Z,99.99
2023-12-04T02:13:50.525Z,99.99
2023-12-04T02:14:50.491Z,99.99
2023-12-04T02:15:50.487Z,99.99
2023-12-04T02:16:50.448Z,99.99
2023-12-04T02:17:50.649Z,99.99
2023-12-04T02:18:50.541Z,99.99
2023-12-04T02:19:50.515Z,99.99
2023-12-04T02:20:50.495Z,99.99
2023-12-04T02:21:50.518Z,99.99
2023-12-04T02:22:50.393Z,99.99
2023-12-04T02:23:50.526Z,99.99
2023-12-04T02:24:50.434Z,99.99
2023-12-04T02:25:50.497Z,99.99
2023-12-04T02:26:50.392Z,99.99
2023-12-04T02:27:50.412Z,99.99
2023-12-04T02:28:50.522Z,99.99
2023-12-04T02:29:50.339Z,99.99
2023-12-04T02:30:50.400Z,99.99
2023-12-04T02:31:50.285Z,99.99
2023-12-04T02:32:50.375Z,99.99
2023-12-04T02:33:50.406Z,99.99
2023-12-04T02:34:50.306Z,99.99
2023-12-04T02:35:50.366Z,99.99
2023-12-04T02:36:50.318Z,99.99
2023-12-04T02:37:50.413Z,99.99
2023-12-04T02:38:50.337Z,99.99
2023-12-04T02:39:50.292Z,99.99
2023-12-04T02:40:50.306Z,99.99
2023-12-04T02:41:50.203Z,99.99
2023-12-04T02:42:50.261Z,99.99
2023-12-04T02:43:50.267Z,99.99
2023-12-04T02:44:50.222Z,99.99
2023-12-04T02:45:50.210Z,99.99
2023-12-04T02:46:50.158Z,99.99
2023-12-04T02:47:50.212Z,99.99
2023-12-04T02:48:50.470Z,99.99
2023-12-04T02:49:50.139Z,99.99
2023-12-04T02:50:50.260Z,99.99
2023-12-04T02:51:50.206Z,99.99
2023-12-04T02:52:50.131Z,99.99
2023-12-04T02:53:50.282Z,99.99
2023-12-04T02:54:50.135Z,99.99
2023-12-04T02:55:50.111Z,99.99
2023-12-04T02:56:50.085Z,99.99
2023-12-04T02:57:50.113Z,99.99
2023-12-04T02:58:50.115Z,99.99
2023-12-04T02:59:50.068Z,99.99
2023-12-04T03:00:50.059Z,99.99
2023-12-04T03:01:50.150Z,99.99
2023-12-04T03:02:50.077Z,99.99
2023-12-04T03:03:50.181Z,99.99
2023-12-04T03:04:50.358Z,99.99
2023-12-04T03:05:49.991Z,99.99
2023-12-04T03:06:50.034Z,99.99
2023-12-04T03:07:49.988Z,99.99
2023-12-04T03:08:49.955Z,99.99
2023-12-04T03:09:50.211Z,99.99
2023-12-04T03:10:50.008Z,99.99
2023-12-04T03:11:49.904Z,99.99
2023-12-04T03:12:49.931Z,99.99
2023-12-04T03:13:49.960Z,99.99
2023-12-04T03:14:49.939Z,99.93
2023-12-04T03:15:49.898Z,99.82
2023-12-04T03:16:49.937Z,99.82
2023-12-04T03:17:49.924Z,99.51
2023-12-04T03:18:49.969Z,99.24
2023-12-04T03:19:49.893Z,99.34
2023-12-04T03:20:49.881Z,99.55
2023-12-04T03:21:49.851Z,99.76
2023-12-04T03:22:49.885Z,99.87
2023-12-04T03:23:49.782Z,99.99
2023-12-04T03:24:49.824Z,99.99
2023-12-04T03:25:49.868Z,99.99
2023-12-04T03:26:49.816Z,99.99
2023-12-04T03:27:49.841Z,99.99
2023-12-04T03:28:49.754Z,99.99
2023-12-04T03:29:49.747Z,99.98
2023-12-04T03:30:49.744Z,99.87
2023-12-04T03:31:49.718Z,99.87
2023-12-04T03:32:49.962Z,99.87
2023-12-04T03:33:49.820Z,99.76
2023-12-04T03:34:49.751Z,99.66
2023-12-04T03:35:49.688Z,99.76
2023-12-04T03:36:49.927Z,99.76
2023-12-04T03:37:49.796Z,99.66
2023-12-04T03:38:49.803Z,99.66
2023-12-04T03:39:49.691Z,99.55
2023-12-04T03:40:49.705Z,99.44
2023-12-04T03:41:49.614Z,99.34
2023-12-04T03:42:49.615Z,99.13
2023-12-04T03:43:49.612Z,99.13
2023-12-04T03:44:49.821Z,99.13
2023-12-04T03:45:49.702Z,99.02
2023-12-04T03:46:49.585Z,98.92
2023-12-04T03:47:49.635Z,98.82
2023-12-04T03:48:49.663Z,98.71
2023-12-04T03:49:49.582Z,98.60
2023-12-04T03:50:49.541Z,98.50
2023-12-04T03:51:49.535Z,98.71
2023-12-04T03:52:49.565Z,98.60
2023-12-04T03:53:49.504Z,98.39
2023-12-04T03:54:49.665Z,98.29
2023-12-04T03:55:49.501Z,98.29
2023-12-04T03:56:49.478Z,98.29
2023-12-04T03:57:49.676Z,98.18
2023-12-04T03:58:49.461Z,97.87
2023-12-04T03:59:49.467Z,97.87
2023-12-04T04:00:49.486Z,97.87
2023-12-04T04:01:49.451Z,97.87
2023-12-04T04:02:49.443Z,98.08
2023-12-04T04:03:49.472Z,97.97
2023-12-04T04:04:49.423Z,97.97
2023-12-04T04:05:49.364Z,98.18
2023-12-04T04:06:49.428Z,98.29
2023-12-04T04:07:49.452Z,98.39
2023-12-04T04:08:49.463Z,98.39
2023-12-04T04:09:49.401Z,98.29
2023-12-04T04:10:49.322Z,97.97
2023-12-04T04:11:49.318Z,97.66
2023-12-04T04:12:49.485Z,97.76
2023-12-04T04:13:49.303Z,97.76
2023-12-04T04:14:49.349Z,97.91
2023-12-04T04:15:49.292Z,98.08
2023-12-04T04:16:49.289Z,98.29
2023-12-04T04:17:49.347Z,98.18
2023-12-04T04:18:49.432Z,98.08
2023-12-04T04:19:49.313Z,97.97
2023-12-04T04:20:49.302Z,97.87
2023-12-04T04:21:49.234Z,97.55
2023-12-04T04:22:49.271Z,97.24
2023-12-04T04:23:49.242Z,97.34
2023-12-04T04:24:49.242Z,97.34
2023-12-04T04:25:49.209Z,97.34
2023-12-04T04:26:49.221Z,97.17
2023-12-04T04:27:49.201Z,97.34
2023-12-04T04:28:49.148Z,97.34
2023-12-04T04:29:49.154Z,97.34
2023-12-04T04:30:49.285Z,97.34
2023-12-04T04:31:49.148Z,97.45
2023-12-04T04:32:49.207Z,97.45
2023-12-04T04:33:49.265Z,97.34
2023-12-04T04:34:49.146Z,97.34
2023-12-04T04:35:49.180Z,97.13
2023-12-04T04:36:49.142Z,96.92
2023-12-04T04:37:51.813Z,96.81
2023-12-04T04:38:49.200Z,96.61
2023-12-04T04:39:49.146Z,96.61
2023-12-04T04:40:49.100Z,96.71
2023-12-04T04:41:49.072Z,96.61
2023-12-04T04:42:49.076Z,96.61
2023-12-04T04:43:49.026Z,96.71
2023-12-04T04:44:49.062Z,96.92
2023-12-04T04:45:49.045Z,96.92
2023-12-04T04:46:49.052Z,96.81
2023-12-04T04:47:49.010Z,96.81
2023-12-04T04:48:49.079Z,96.81
2023-12-04T04:49:49.027Z,96.50
2023-12-04T04:50:48.976Z,96.50
2023-12-04T04:51:49.143Z,96.61
2023-12-04T04:52:49.015Z,96.50
2023-12-04T04:53:48.925Z,96.29
2023-12-04T04:54:49.005Z,96.29
2023-12-04T04:55:49.686Z,96.39
2023-12-04T04:56:48.941Z,96.35
2023-12-04T04:57:48.978Z,96.45
2023-12-04T04:58:53.134Z,96.25
2023-12-04T04:59:48.902Z,96.25
2023-12-04T05:00:49.169Z,96.14
2023-12-04T05:01:48.908Z,96.14
2023-12-04T05:02:49.103Z,96.14
2023-12-04T05:03:48.965Z,96.14
2023-12-04T05:04:48.899Z,96.03
2023-12-04T05:05:49.072Z,95.83
2023-12-04T05:06:48.849Z,95.72
2023-12-04T05:07:48.953Z,95.83
2023-12-04T05:08:48.880Z,95.62
2023-12-04T05:09:48.995Z,95.72
2023-12-04T05:10:48.862Z,95.62
2023-12-04T05:11:48.738Z,95.51
2023-12-04T05:12:48.827Z,95.20
2023-12-04T05:13:48.761Z,95.20
2023-12-04T05:14:48.749Z,95.30
2023-12-04T05:15:48.800Z,95.30
2023-12-04T05:16:48.716Z,95.30
2023-12-04T05:17:48.707Z,95.40
2023-12-04T05:18:49.318Z,95.40
2023-12-04T05:19:50.093Z,95.40
2023-12-04T05:20:48.688Z,95.09
2023-12-04T05:21:48.702Z,95.09
2023-12-04T05:22:48.717Z,95.20
2023-12-04T05:23:48.642Z,95.30
2023-12-04T05:24:48.631Z,95.20
2023-12-04T05:25:50.671Z,94.98
2023-12-04T05:26:48.909Z,94.98
2023-12-04T05:27:50.461Z,95.09
2023-12-04T05:28:48.585Z,95.30
2023-12-04T05:29:48.565Z,95.51
2023-12-04T05:30:48.561Z,95.51
2023-12-04T05:31:48.658Z,95.51
2023-12-04T05:32:48.804Z,95.51
2023-12-04T05:33:48.692Z,95.62
2023-12-04T05:34:50.764Z,95.51
2023-12-04T05:35:48.511Z,95.40
2023-12-04T05:36:48.547Z,95.51
2023-12-04T05:37:48.490Z,95.62
2023-12-04T05:38:49.057Z,95.62
2023-12-04T05:39:48.510Z,95.62
2023-12-04T05:40:48.551Z,95.62
2023-12-04T05:41:48.584Z,95.72
2023-12-04T05:42:48.513Z,95.72
2023-12-04T05:43:48.531Z,95.83
2023-12-04T05:44:48.537Z,95.83
2023-12-04T05:45:51.313Z,95.83
2023-12-04T05:46:48.463Z,95.72
2023-12-04T05:47:48.487Z,95.62
2023-12-04T05:48:48.467Z,95.51
2023-12-04T05:49:48.479Z,95.62
2023-12-04T05:50:48.388Z,95.62
2023-12-04T05:51:48.441Z,95.51
2023-12-04T05:52:48.463Z,95.51
2023-12-04T05:53:48.345Z,95.51
2023-12-04T05:54:48.371Z,95.72
2023-12-04T05:55:52.386Z,95.72
2023-12-04T05:56:48.666Z,95.62
2023-12-04T05:57:48.408Z,95.62
2023-12-04T05:58:48.290Z,95.72
2023-12-04T05:59:48.295Z,95.72
2023-12-04T06:00:48.380Z,95.83
2023-12-04T06:01:48.481Z,95.83
2023-12-04T06:02:48.383Z,95.93
2023-12-04T06:03:48.270Z,95.93
2023-12-04T06:04:48.252Z,95.93
2023-12-04T06:05:48.410Z,96.03
2023-12-04T06:06:48.270Z,96.03
2023-12-04T06:07:48.174Z,96.14
2023-12-04T06:08:48.292Z,96.14
2023-12-04T06:09:48.262Z,96.03
2023-12-04T06:10:48.226Z,95.72
2023-12-04T06:11:48.386Z,95.72
2023-12-04T06:12:48.234Z,95.83
2023-12-04T06:13:48.357Z,95.83
2023-12-04T06:14:48.267Z,95.72
2023-12-04T06:15:48.228Z,95.68
2023-12-04T06:16:48.491Z,95.68
2023-12-04T06:17:48.244Z,95.57
2023-12-04T06:18:48.162Z,95.57
2023-12-04T06:19:48.140Z,95.47
2023-12-04T06:20:48.124Z,95.47
2023-12-04T06:21:48.142Z,95.26
2023-12-04T06:22:48.072Z,95.04
2023-12-04T06:23:48.035Z,94.94
2023-12-04T06:24:48.001Z,94.94
2023-12-04T06:25:48.011Z,94.94
2023-12-04T06:26:48.176Z,95.15
2023-12-04T06:27:48.008Z,94.90
2023-12-04T06:28:47.973Z,94.79
2023-12-04T06:29:51.509Z,94.79
2023-12-04T06:30:48.071Z,94.79
2023-12-04T06:31:48.002Z,94.79
2023-12-04T06:32:48.010Z,94.79
2023-12-04T06:33:48.101Z,94.79
2023-12-04T06:34:48.271Z,94.58
2023-12-04T06:35:47.918Z,94.58
2023-12-04T06:36:47.927Z,94.69
2023-12-04T06:37:47.908Z,94.58
2023-12-04T06:38:47.918Z,94.48
2023-12-04T06:39:47.886Z,94.48
2023-12-04T06:40:48.124Z,94.48
2023-12-04T06:41:47.855Z,94.48
2023-12-04T06:42:47.846Z,94.37
2023-12-04T06:43:49.593Z,94.37
2023-12-04T06:44:48.474Z,94.06
2023-12-04T06:45:47.824Z,94.06
2023-12-04T06:46:47.808Z,94.06
2023-12-04T06:47:47.804Z,94.06
2023-12-04T06:48:47.828Z,94.17
2023-12-04T06:49:47.898Z,94.17
2023-12-04T06:50:47.746Z,94.17
2023-12-04T06:51:47.793Z,94.27
2023-12-04T06:52:47.727Z,94.17
2023-12-04T06:53:47.939Z,94.06
2023-12-04T06:54:48.541Z,94.17
2023-12-04T06:55:47.688Z,93.95
2023-12-04T06:56:47.694Z,93.95
2023-12-04T06:57:47.717Z,94.06
2023-12-04T06:58:47.743Z,94.27
2023-12-04T06:59:47.650Z,94.06
2023-12-04T07:00:47.833Z,94.27
2023-12-04T07:01:47.684Z,94.27
2023-12-04T07:02:50.277Z,94.37
2023-12-04T07:03:47.733Z,94.48
2023-12-04T07:04:47.717Z,94.37
2023-12-04T07:05:47.654Z,94.06
2023-12-04T07:06:47.624Z,94.06
2023-12-04T07:07:48.589Z,94.06
2023-12-04T07:08:48.131Z,94.06
2023-12-04T07:09:47.667Z,94.06
2023-12-04T07:10:47.608Z,93.85
2023-12-04T07:11:47.642Z,93.95
2023-12-04T07:12:47.829Z,93.95
2023-12-04T07:13:47.687Z,94.17
2023-12-04T07:14:47.623Z,94.37
2023-12-04T07:15:47.652Z,94.37
2023-12-04T07:16:47.753Z,94.17
2023-12-04T07:17:47.796Z,93.95
2023-12-04T07:18:47.860Z,93.85
2023-12-04T07:19:47.684Z,93.74
2023-12-04T07:20:47.508Z,94.06
2023-12-04T07:21:47.553Z,94.27
2023-12-04T07:22:47.507Z,94.06
2023-12-04T07:23:47.553Z,94.10
2023-12-04T07:24:48.158Z,94.31
2023-12-04T07:25:47.647Z,94.52
2023-12-04T07:26:47.451Z,94.62
2023-12-04T07:27:47.713Z,94.62
2023-12-04T07:28:47.500Z,94.52
2023-12-04T07:29:48.352Z,94.62
2023-12-04T07:30:47.428Z,94.73
2023-12-04T07:31:47.351Z,94.73
2023-12-04T07:32:47.593Z,94.52
2023-12-04T07:33:47.408Z,94.31
2023-12-04T07:34:47.458Z,94.31
2023-12-04T07:35:47.323Z,94.52
2023-12-04T07:36:47.319Z,94.42
2023-12-04T07:37:47.337Z,94.73
2023-12-04T07:38:47.284Z,94.90
2023-12-04T07:39:47.453Z,94.48
2023-12-04T07:40:47.299Z,94.37
2023-12-04T07:41:47.446Z,94.17
2023-12-04T07:42:47.308Z,94.17
2023-12-04T07:43:47.867Z,94.01
2023-12-04T07:44:47.234Z,93.91
2023-12-04T07:45:47.370Z,93.70
2023-12-04T07:46:47.286Z,93.70
2023-12-04T07:47:47.201Z,93.59
2023-12-04T07:48:47.421Z,93.55
2023-12-04T07:49:47.342Z,93.44
2023-12-04T07:50:47.684Z,93.24
2023-12-04T07:51:47.203Z,92.82
2023-12-04T07:52:47.190Z,92.82
2023-12-04T07:53:47.175Z,92.82
2023-12-04T07:54:47.316Z,92.77
2023-12-04T07:55:47.179Z,92.57
2023-12-04T07:56:47.162Z,92.46
2023-12-04T07:57:47.245Z,92.14
2023-12-04T07:58:47.100Z,91.72
2023-12-04T07:59:50.082Z,91.62
2023-12-04T08:00:47.086Z,91.72
2023-12-04T08:01:47.217Z,91.62
2023-12-04T08:02:47.245Z,91.72
2023-12-04T08:03:47.179Z,91.72
2023-12-04T08:04:47.095Z,91.41
2023-12-04T08:05:47.146Z,91.09
2023-12-04T08:06:47.128Z,91.41
2023-12-04T08:07:47.015Z,91.52
2023-12-04T08:08:47.099Z,91.87
2023-12-04T08:09:47.013Z,92.19
2023-12-04T08:10:46.975Z,92.54
2023-12-04T08:11:46.994Z,92.86
2023-12-04T08:12:47.024Z,92.96
2023-12-04T08:13:46.930Z,93.02
2023-12-04T08:14:46.936Z,92.92
2023-12-04T08:15:46.967Z,92.92
2023-12-04T08:16:46.934Z,92.82
2023-12-04T08:17:46.935Z,92.50
2023-12-04T08:18:46.986Z,92.40
2023-12-04T08:19:49.875Z,92.29
2023-12-04T08:20:46.978Z,92.50
2023-12-04T08:21:46.951Z,92.61
2023-12-04T08:22:46.881Z,92.50
2023-12-04T08:23:46.907Z,92.46
2023-12-04T08:24:47.031Z,92.46
2023-12-04T08:25:46.849Z,92.04
2023-12-04T08:26:46.797Z,91.94
2023-12-04T08:27:46.823Z,92.19
2023-12-04T08:28:46.789Z,92.29
2023-12-04T08:29:46.801Z,92.61
2023-12-04T08:30:47.395Z,92.77
2023-12-04T08:31:46.780Z,92.67
2023-12-04T08:32:46.844Z,92.46
2023-12-04T08:33:46.859Z,92.00
2023-12-04T08:34:46.727Z,91.89
2023-12-04T08:35:46.786Z,91.89
2023-12-04T08:36:47.241Z,91.64
2023-12-04T08:37:47.019Z,90.91
2023-12-04T08:38:46.789Z,90.91
2023-12-04T08:39:46.691Z,90.80
2023-12-04T08:40:46.680Z,90.59
2023-12-04T08:41:54.549Z,90.38
2023-12-04T08:42:47.715Z,90.38
2023-12-04T08:43:46.753Z,90.38
2023-12-04T08:44:46.645Z,90.28
2023-12-04T08:45:46.642Z,90.38
2023-12-04T08:46:46.795Z,90.49
2023-12-04T08:47:46.619Z,90.49
2023-12-04T08:48:46.758Z,90.59
2023-12-04T08:49:49.350Z,90.95
2023-12-04T08:50:46.591Z,91.12
2023-12-04T08:51:46.767Z,91.22
2023-12-04T08:52:46.561Z,91.27
2023-12-04T08:53:46.543Z,91.58
2023-12-04T08:54:46.561Z,91.58
2023-12-04T08:55:46.618Z,91.47
2023-12-04T08:56:46.583Z,91.68
2023-12-04T08:57:46.587Z,91.68
2023-12-04T08:58:46.612Z,91.58
2023-12-04T08:59:46.490Z,91.58
2023-12-04T09:00:46.496Z,91.58
2023-12-04T09:01:46.548Z,91.64
2023-12-04T09:02:49.871Z,91.58
2023-12-04T09:03:47.593Z,91.68
2023-12-04T09:04:46.536Z,91.64
2023-12-04T09:05:47.435Z,91.53
2023-12-04T09:08:53.118Z,91.43
2023-12-04T09:09:47.944Z,91.53
2023-12-04T09:11:02.998Z,91.33
2023-12-04T09:11:47.493Z,91.43
2023-12-04T09:12:46.466Z,91.01
2023-12-04T09:13:46.464Z,90.91
2023-12-04T09:14:46.498Z,90.91
2023-12-04T09:15:46.469Z,90.91
2023-12-04T09:16:46.682Z,91.12
2023-12-04T09:17:46.441Z,91.12
2023-12-04T09:18:46.467Z,91.18
2023-12-04T09:19:46.445Z,90.87
2023-12-04T09:20:46.489Z,90.97
2023-12-04T09:21:46.928Z,90.97
2023-12-04T09:22:50.571Z,90.51
2023-12-04T09:23:47.595Z,90.30
2023-12-04T09:24:46.353Z,90.09
2023-12-04T09:25:46.417Z,89.88
2023-12-04T09:26:46.218Z,89.84
2023-12-04T09:27:46.669Z,89.32
2023-12-04T09:28:46.262Z,89.00
2023-12-04T09:29:46.261Z,88.79
2023-12-04T09:30:46.251Z,88.79
2023-12-04T09:31:46.182Z,88.90
2023-12-04T09:32:46.384Z,89.00
2023-12-04T09:33:46.379Z,89.11
2023-12-04T09:34:46.146Z,89.11
2023-12-04T09:35:46.136Z,88.69
2023-12-04T09:36:46.160Z,88.48
2023-12-04T09:37:46.138Z,88.06
2023-12-04T09:38:46.114Z,88.17
2023-12-04T09:39:51.025Z,87.85
2023-12-04T09:40:46.246Z,87.96
2023-12-04T09:41:46.168Z,87.92
2023-12-04T09:42:46.295Z,87.81
2023-12-04T09:43:46.180Z,87.81
2023-12-04T09:45:03.148Z,87.39
2023-12-04T09:45:46.153Z,87.39
2023-12-04T09:46:46.162Z,87.18
2023-12-04T09:47:46.308Z,87.18
2023-12-04T09:48:46.294Z,87.33
2023-12-04T09:49:46.204Z,87.54
2023-12-04T09:50:46.113Z,87.64
2023-12-04T09:51:46.048Z,87.74
2023-12-04T09:52:45.977Z,87.85
2023-12-04T09:53:46.035Z,88.02
2023-12-04T09:54:45.965Z,88.02
2023-12-04T09:55:46.000Z,87.60
2023-12-04T09:56:46.387Z,87.39
2023-12-04T09:57:46.013Z,87.35
2023-12-04T09:58:45.983Z,87.25
2023-12-04T09:59:46.008Z,86.93
2023-12-04T10:00:45.980Z,87.04
2023-12-04T10:01:45.997Z,86.93
2023-12-04T10:02:45.993Z,86.69
2023-12-04T10:03:46.033Z,86.58
2023-12-04T10:04:46.205Z,86.37
2023-12-04T10:05:45.853Z,85.74
2023-12-04T10:06:45.858Z,85.43
2023-12-04T10:07:45.850Z,85.50
2023-12-04T10:08:45.829Z,85.60
2023-12-04T10:09:45.840Z,85.39
2023-12-04T10:10:46.505Z,85.60
2023-12-04T10:11:46.142Z,85.08
2023-12-04T10:12:45.881Z,85.18
2023-12-04T10:13:57.886Z,84.97
2023-12-04T10:14:47.048Z,84.97
2023-12-04T10:15:45.801Z,84.97
2023-12-04T10:16:45.787Z,85.18
2023-12-04T10:17:45.881Z,84.94
2023-12-04T10:18:45.828Z,84.41
2023-12-04T10:19:45.794Z,84.31
2023-12-04T10:20:49.653Z,84.10
2023-12-04T10:21:45.734Z,84.20
2023-12-04T10:22:45.809Z,84.41
2023-12-04T10:23:45.993Z,84.41
2023-12-04T10:24:45.947Z,84.31
2023-12-04T10:25:45.729Z,84.52
2023-12-04T10:26:46.778Z,84.03
2023-12-04T10:27:45.844Z,84.45
2023-12-04T10:28:45.742Z,84.14
2023-12-04T10:29:45.739Z,84.45
2023-12-04T10:30:46.509Z,84.24
2023-12-04T10:31:45.682Z,84.10
2023-12-04T10:32:45.939Z,84.00
2023-12-04T10:33:46.340Z,84.20
2023-12-04T10:34:45.925Z,83.89
2023-12-04T10:35:45.856Z,83.78
2023-12-04T10:36:45.753Z,83.64
2023-12-04T10:37:45.681Z,83.12
2023-12-04T10:38:45.948Z,83.33
2023-12-04T10:39:45.735Z,83.33
2023-12-04T10:40:46.517Z,83.64
2023-12-04T10:41:45.740Z,83.12
2023-12-04T10:42:45.697Z,82.91
2023-12-04T10:43:47.727Z,82.81
2023-12-04T10:44:45.978Z,82.91
2023-12-04T10:45:46.708Z,83.12
2023-12-04T10:46:47.152Z,82.91
2023-12-04T10:47:46.661Z,83.01
2023-12-04T10:48:46.808Z,82.56
2023-12-04T10:49:46.277Z,82.35
2023-12-04T10:50:45.604Z,82.14
2023-12-04T10:51:45.618Z,82.14
2023-12-04T10:52:45.582Z,81.93
2023-12-04T10:53:45.480Z,82.04
2023-12-04T10:54:45.859Z,82.04
2023-12-04T10:55:45.434Z,81.73
2023-12-04T10:56:45.487Z,81.93
2023-12-04T10:57:45.786Z,82.04
2023-12-04T10:58:45.537Z,82.00
2023-12-04T10:59:45.644Z,81.59
2023-12-04T11:00:45.812Z,81.38
2023-12-04T11:01:46.913Z,81.38
2023-12-04T11:03:09.626Z,81.38
2023-12-04T11:03:45.642Z,81.48
2023-12-04T11:04:45.628Z,81.48
2023-12-04T11:05:46.641Z,81.38
2023-12-04T11:06:45.538Z,81.31
2023-12-04T11:08:13.068Z,81.41
2023-12-04T11:08:47.050Z,81.52
2023-12-04T11:09:46.995Z,81.62
2023-12-04T11:10:45.699Z,81.93
2023-12-04T11:11:46.550Z,81.93
2023-12-04T11:12:45.414Z,82.04
2023-12-04T11:13:45.498Z,82.25
2023-12-04T11:14:45.544Z,82.14
2023-12-04T11:15:45.565Z,82.04
2023-12-04T11:16:45.353Z,82.14
2023-12-04T11:17:46.171Z,82.04
2023-12-04T11:18:45.997Z,81.93
2023-12-04T11:19:45.247Z,81.73
2023-12-04T11:20:45.998Z,81.83
2023-12-04T11:21:45.969Z,81.93
2023-12-04T11:22:45.584Z,81.87
2023-12-04T11:23:45.216Z,82.35
2023-12-04T11:24:45.977Z,82.39
2023-12-04T11:25:50.167Z,82.07
2023-12-04T11:26:45.348Z,82.50
2023-12-04T11:27:55.608Z,82.60
2023-12-04T11:28:57.027Z,82.60
2023-12-04T11:29:45.211Z,82.70
2023-12-04T11:30:50.525Z,82.67
2023-12-04T11:31:45.309Z,82.67
2023-12-04T11:32:45.395Z,82.56
2023-12-04T11:33:45.197Z,82.35
2023-12-04T11:34:45.178Z,82.25
2023-12-04T11:35:45.277Z,82.25
2023-12-04T11:36:45.420Z,82.04
2023-12-04T11:37:45.395Z,82.04
2023-12-04T11:38:45.248Z,82.04
2023-12-04T11:39:45.819Z,82.35
2023-12-04T11:40:45.938Z,82.46
2023-12-04T11:41:46.819Z,82.14
2023-12-04T11:42:45.084Z,82.14
2023-12-04T11:43:45.997Z,82.21
2023-12-04T11:44:45.660Z,81.69
2023-12-04T11:45:45.334Z,81.59
2023-12-04T11:46:45.180Z,81.48
2023-12-04T11:47:50.610Z,81.38
2023-12-04T11:48:45.349Z,81.48
2023-12-04T11:49:45.415Z,81.59
2023-12-04T11:50:50.711Z,81.59
2023-12-04T11:51:47.861Z,81.48
2023-12-04T11:53:11.649Z,81.59
2023-12-04T11:53:47.110Z,81.38
2023-12-04T11:54:45.057Z,81.38
2023-12-04T11:55:45.842Z,81.38
2023-12-04T11:56:45.068Z,81.59
2023-12-04T11:57:45.787Z,81.69
2023-12-04T11:58:46.067Z,81.48
2023-12-04T11:59:44.940Z,81.48
2023-12-04T12:00:45.532Z,81.38
2023-12-04T12:01:45.029Z,81.38
2023-12-04T12:03:14.894Z,81.23
2023-12-04T12:03:46.184Z,81.02
2023-12-04T12:04:45.453Z,81.02
2023-12-04T12:05:46.165Z,80.92
2023-12-04T12:06:45.260Z,80.82
2023-12-04T12:07:45.148Z,80.92
2023-12-04T12:08:45.261Z,80.82
2023-12-04T12:09:45.561Z,80.92
2023-12-04T12:10:45.153Z,80.92
2023-12-04T12:11:45.215Z,80.92
2023-12-04T12:12:45.110Z,81.16
2023-12-04T12:13:48.179Z,81.16
2023-12-04T12:14:45.872Z,81.34
2023-12-04T12:15:45.427Z,81.45
2023-12-04T12:16:45.533Z,81.55
2023-12-04T12:17:45.296Z,81.45
2023-12-04T12:18:46.413Z,81.55
2023-12-04T12:19:45.271Z,81.45
2023-12-04T12:20:45.142Z,81.34
2023-12-04T12:21:45.137Z,81.23
2023-12-04T12:22:45.127Z,81.23
2023-12-04T12:23:44.946Z,81.34
2023-12-04T12:24:44.780Z,81.65
2023-12-04T12:25:46.010Z,81.45
2023-12-04T12:26:44.920Z,81.76
2023-12-04T12:27:44.991Z,81.76
2023-12-04T12:28:46.046Z,81.76
2023-12-04T12:29:45.214Z,81.65
2023-12-04T12:30:47.858Z,81.34
2023-12-04T12:31:44.577Z,81.79
2023-12-04T12:32:45.234Z,81.90
2023-12-04T12:33:45.142Z,82.10
2023-12-04T12:34:44.749Z,82.42
2023-12-04T12:35:51.531Z,82.56
2023-12-04T12:36:46.091Z,82.77
2023-12-04T12:38:05.925Z,82.84
2023-12-04T12:38:44.707Z,83.04
2023-12-04T12:39:49.749Z,82.94
2023-12-04T12:40:46.520Z,82.94
2023-12-04T12:41:44.989Z,83.04
2023-12-04T12:42:44.639Z,82.73
2023-12-04T12:43:44.730Z,82.73
2023-12-04T12:44:44.958Z,82.84
2023-12-04T12:45:45.938Z,82.94
2023-12-04T12:46:44.476Z,83.04
2023-12-04T12:47:45.529Z,83.25
2023-12-04T12:48:45.945Z,83.04
2023-12-04T12:49:44.684Z,82.94
2023-12-04T12:50:45.646Z,83.04
2023-12-04T12:51:53.335Z,83.04
2023-12-04T12:52:44.999Z,82.94
2023-12-04T12:53:51.771Z,83.04
2023-12-04T12:54:48.139Z,83.15